createdAt,value
2019-01-09T00:00:16.750Z,79.01
2019-01-09T00:03:20.138Z,79.54
2019-01-09T00:06:23.599Z,80.56
2019-01-09T00:09:27.080Z,80.59
2019-01-09T00:12:30.413Z,80.86
2019-01-09T00:15:33.839Z,82.04
2019-01-09T00:18:37.238Z,82.07
2019-01-09T00:21:40.647Z,82.35
2019-01-09T00:24:44.042Z,82.59
2019-01-09T00:27:47.413Z,82.81
2019-01-09T00:30:50.838Z,82.00
2019-01-09T00:33:54.238Z,82.56
2019-01-09T00:36:57.603Z,83.63
2019-01-09T00:40:01.046Z,83.75
2019-01-09T00:43:04.497Z,84.66
2019-01-09T00:46:07.872Z,84.66
2019-01-09T00:49:11.269Z,84.95
2019-01-09T00:52:14.661Z,85.98
2019-01-09T00:55:18.150Z,85.25
2019-01-09T00:58:21.589Z,85.08
2019-01-09T01:01:24.957Z,85.51
2019-01-09T01:05:46.070Z,85.31
2019-01-09T01:08:53.743Z,86.12
2019-01-09T01:12:49.764Z,85.54
2019-01-09T01:16:06.797Z,85.65
2019-01-09T01:19:25.951Z,85.25
2019-01-09T01:26:47.505Z,85.28
2019-01-09T01:30:02.831Z,85.20
2019-01-09T01:33:24.176Z,85.89
2019-01-09T01:36:38.252Z,85.29
2019-01-09T01:40:06.491Z,85.37
2019-01-09T01:43:17.329Z,86.17
2019-01-09T01:47:37.761Z,87.39
2019-01-09T01:50:52.975Z,88.01
2019-01-09T01:54:13.571Z,87.06
2019-01-09T01:59:32.477Z,87.08
2019-01-09T02:02:57.804Z,86.85
2019-01-09T02:06:18.888Z,86.62
2019-01-09T02:09:35.103Z,86.62
2019-01-09T02:12:49.309Z,87.24
2019-01-09T02:18:07.224Z,86.53
2019-01-09T02:21:18.357Z,86.38
2019-01-09T02:25:33.611Z,86.10
2019-01-09T02:28:46.824Z,85.49
2019-01-09T02:32:03.096Z,85.41
2019-01-09T02:35:06.517Z,85.28
2019-01-09T02:38:09.860Z,84.75
2019-01-09T02:41:13.253Z,85.05
2019-01-09T02:44:16.654Z,86.05
2019-01-09T02:47:20.061Z,87.35
2019-01-09T02:50:23.455Z,89.31
2019-01-09T02:53:26.882Z,89.17
2019-01-09T02:56:30.279Z,90.40
2019-01-09T02:59:33.652Z,92.30
2019-01-09T03:02:37.102Z,91.94
2019-01-09T03:05:40.508Z,91.58
2019-01-09T03:08:43.866Z,90.45
2019-01-09T03:11:47.275Z,89.71
2019-01-09T03:14:50.692Z,89.08
2019-01-09T03:17:54.293Z,89.80
2019-01-09T03:20:57.647Z,88.65
2019-01-09T03:24:01.124Z,88.66
2019-01-09T03:27:04.510Z,87.76
2019-01-09T03:30:08.224Z,88.19
2019-01-09T03:33:11.622Z,87.25
2019-01-09T03:36:15.023Z,87.26
2019-01-09T03:39:18.510Z,87.09
2019-01-09T03:42:21.923Z,87.37
2019-01-09T03:45:25.325Z,87.27
2019-01-09T03:48:28.732Z,87.85
2019-01-09T03:51:32.095Z,87.90
2019-01-09T03:54:35.533Z,87.96
2019-01-09T03:57:38.897Z,87.68
2019-01-09T04:00:42.319Z,87.31
2019-01-09T04:03:45.736Z,87.76
2019-01-09T04:06:49.130Z,88.22
2019-01-09T04:09:52.482Z,88.00
2019-01-09T04:12:55.889Z,88.42
2019-01-09T04:15:59.316Z,87.84
2019-01-09T04:19:02.701Z,87.77
2019-01-09T04:22:06.117Z,87.35
2019-01-09T04:25:09.511Z,86.33
2019-01-09T04:28:12.904Z,87.30
2019-01-09T04:31:16.399Z,87.55
2019-01-09T04:34:19.795Z,87.14
2019-01-09T04:37:23.200Z,86.60
2019-01-09T04:40:26.601Z,86.45
2019-01-09T04:43:30.011Z,86.62
2019-01-09T04:46:33.433Z,87.51
2019-01-09T04:49:36.812Z,86.77
2019-01-09T04:52:40.229Z,86.52
2019-01-09T04:55:43.604Z,87.31
2019-01-09T04:58:47.015Z,87.88
2019-01-09T05:01:50.487Z,88.99
2019-01-09T05:04:53.940Z,89.79
2019-01-09T05:07:57.380Z,90.76
2019-01-09T05:11:00.694Z,92.09
2019-01-09T05:14:04.164Z,92.12
2019-01-09T05:17:07.526Z,93.00
2019-01-09T05:20:10.891Z,93.39
2019-01-09T05:23:14.294Z,93.10
2019-01-09T05:26:17.773Z,93.87
2019-01-09T05:29:21.191Z,94.29
2019-01-09T05:32:24.739Z,93.94
2019-01-09T05:35:28.209Z,94.24
2019-01-09T05:38:31.682Z,95.30
2019-01-09T05:41:35.117Z,96.35
2019-01-09T05:44:38.586Z,95.48
2019-01-09T05:47:42.042Z,97.82
2019-01-09T05:50:45.502Z,100.00
2019-01-09T05:53:48.872Z,100.00
2019-01-09T05:56:52.325Z,100.00
2019-01-09T05:59:55.812Z,100.00
2019-01-09T06:02:59.191Z,100.00
2019-01-09T06:06:02.574Z,100.00
2019-01-09T06:09:06.630Z,100.00
2019-01-09T06:12:10.129Z,100.00
2019-01-09T06:15:13.650Z,100.00
2019-01-09T06:18:17.184Z,100.00
2019-01-09T06:21:20.744Z,100.00
2019-01-09T06:24:24.276Z,100.00
2019-01-09T06:27:27.810Z,100.00
2019-01-09T06:30:31.297Z,100.00
2019-01-09T06:33:34.769Z,100.00
2019-01-09T06:36:38.314Z,100.00
2019-01-09T06:39:41.786Z,100.00
2019-01-09T06:42:45.287Z,100.00
2019-01-09T06:45:48.779Z,100.00
2019-01-09T06:48:52.259Z,100.00
2019-01-09T06:51:55.803Z,100.00
2019-01-09T06:54:59.258Z,100.00
2019-01-09T06:58:02.641Z,100.00
2019-01-09T07:01:06.035Z,100.00
2019-01-09T07:04:09.458Z,98.75
2019-01-09T07:07:12.886Z,94.28
2019-01-09T07:10:16.240Z,93.19
2019-01-09T07:13:19.647Z,94.03
2019-01-09T07:16:23.137Z,92.38
2019-01-09T07:19:26.550Z,92.10
2019-01-09T07:22:29.978Z,92.36
2019-01-09T07:25:33.389Z,91.13
2019-01-09T07:28:36.789Z,91.07
2019-01-09T07:31:40.251Z,92.05
2019-01-09T07:34:43.686Z,92.47
2019-01-09T07:37:47.182Z,92.88
2019-01-09T07:40:50.690Z,93.10
2019-01-09T07:43:54.084Z,91.24
2019-01-09T07:46:57.491Z,90.67
2019-01-09T07:50:00.969Z,89.91
2019-01-09T07:53:04.370Z,88.93
2019-01-09T07:56:07.807Z,88.19
2019-01-09T07:59:11.308Z,87.91
2019-01-09T08:02:14.646Z,87.87
2019-01-09T08:05:18.062Z,88.06
2019-01-09T08:08:21.511Z,87.31
2019-01-09T08:11:24.997Z,88.27
2019-01-09T08:14:28.376Z,87.17
2019-01-09T08:17:31.766Z,87.36
2019-01-09T08:20:35.217Z,86.06
2019-01-09T08:23:38.667Z,85.46
2019-01-09T08:26:42.109Z,84.74
2019-01-09T08:29:45.587Z,84.35
2019-01-09T08:32:49.029Z,83.85
2019-01-09T08:35:52.506Z,81.68
2019-01-09T08:38:55.914Z,82.71
2019-01-09T08:41:59.318Z,81.86
2019-01-09T08:45:02.831Z,82.87
2019-01-09T08:48:06.343Z,82.15
2019-01-09T08:51:09.905Z,80.59
2019-01-09T08:54:13.402Z,80.85
2019-01-09T08:57:16.830Z,80.42
2019-01-09T09:00:20.369Z,80.33
2019-01-09T09:03:23.880Z,80.45
2019-01-09T09:06:27.374Z,79.58
2019-01-09T09:09:30.911Z,79.98
2019-01-09T09:12:34.395Z,78.92
2019-01-09T09:15:37.843Z,79.99
2019-01-09T09:18:41.342Z,80.05
2019-01-09T09:21:44.725Z,78.78
2019-01-09T09:24:48.441Z,79.60
2019-01-09T09:27:51.892Z,79.45
2019-01-09T09:30:55.382Z,79.84
2019-01-09T09:33:58.942Z,79.23
2019-01-09T09:37:02.355Z,79.40
2019-01-09T09:40:06.308Z,79.93
2019-01-09T09:43:09.950Z,79.07
2019-01-09T09:46:13.365Z,78.95
2019-01-09T09:49:17.037Z,78.20
2019-01-09T09:52:20.358Z,77.70
2019-01-09T09:55:23.826Z,78.25
2019-01-09T09:58:27.329Z,78.45
2019-01-09T10:01:30.859Z,78.97
2019-01-09T10:04:34.332Z,81.95
2019-01-09T10:07:37.834Z,84.37
2019-01-09T10:10:41.538Z,86.47
2019-01-09T10:13:45.079Z,86.44
2019-01-09T10:16:48.477Z,87.27
2019-01-09T10:19:51.983Z,85.74
2019-01-09T10:22:55.492Z,82.64
2019-01-09T10:25:58.992Z,82.88
2019-01-09T10:29:02.497Z,83.33
2019-01-09T10:32:05.959Z,82.08
2019-01-09T10:35:09.445Z,80.83
2019-01-09T10:38:12.848Z,80.69
2019-01-09T10:41:16.234Z,81.32
2019-01-09T10:44:19.652Z,80.58
2019-01-09T10:47:23.022Z,79.57
2019-01-09T10:50:26.520Z,79.16
2019-01-09T10:53:29.938Z,80.03
2019-01-09T10:56:33.381Z,78.86
2019-01-09T10:59:36.836Z,79.65
2019-01-09T11:02:40.290Z,79.22
2019-01-09T11:05:43.865Z,80.49
2019-01-09T11:08:47.409Z,79.55
2019-01-09T11:11:50.726Z,78.50
2019-01-09T11:14:54.153Z,79.91
2019-01-09T11:17:57.644Z,80.07
2019-01-09T11:21:01.195Z,81.01
2019-01-09T11:24:04.734Z,83.92
2019-01-09T11:27:08.141Z,85.39
2019-01-09T11:30:13.459Z,87.01
2019-01-09T11:33:16.894Z,86.63
2019-01-09T11:36:20.402Z,88.08
2019-01-09T11:39:24.099Z,87.88
2019-01-09T11:42:27.545Z,87.55
2019-01-09T11:45:31.065Z,85.68
2019-01-09T11:48:34.523Z,82.04
2019-01-09T11:51:37.980Z,83.90
2019-01-09T11:54:41.710Z,83.87
2019-01-09T11:57:44.913Z,81.49
2019-01-09T12:00:48.408Z,81.60
2019-01-09T12:03:51.836Z,81.27
2019-01-09T12:06:56.399Z,78.95
2019-01-09T12:09:59.906Z,78.57
2019-01-09T12:13:03.287Z,78.92
2019-01-09T12:16:08.228Z,78.35
2019-01-09T12:19:10.407Z,78.98
2019-01-09T12:22:13.988Z,80.36
2019-01-09T12:25:17.456Z,80.33
2019-01-09T12:28:20.846Z,81.30
2019-01-09T12:31:24.255Z,81.82
2019-01-09T12:34:27.732Z,80.68
2019-01-09T12:37:31.253Z,81.14
2019-01-09T12:40:35.664Z,81.83
2019-01-09T12:43:39.322Z,81.26
2019-01-09T12:46:43.743Z,81.84
2019-01-09T12:49:47.142Z,82.49
2019-01-09T12:52:52.582Z,82.20
2019-01-09T12:55:53.996Z,80.04
2019-01-09T12:58:57.338Z,78.56
2019-01-09T13:02:00.726Z,73.47
2019-01-09T13:05:04.632Z,74.57
2019-01-09T13:08:08.052Z,75.22
2019-01-09T13:11:12.458Z,76.17
2019-01-09T13:14:15.899Z,77.54
2019-01-09T13:17:19.244Z,77.74
2019-01-09T13:20:22.705Z,76.89
2019-01-09T13:23:26.129Z,77.03
2019-01-09T13:26:29.485Z,75.67
2019-01-09T13:29:32.863Z,76.36
2019-01-09T13:32:36.256Z,76.70
2019-01-09T13:35:40.637Z,76.58
2019-01-09T13:38:44.030Z,76.19
2019-01-09T13:41:47.504Z,73.96
2019-01-09T13:44:51.004Z,74.70
2019-01-09T13:47:54.623Z,74.83
2019-01-09T13:50:58.006Z,73.32
2019-01-09T13:54:01.496Z,73.51
2019-01-09T13:57:05.055Z,72.80
2019-01-09T14:00:11.707Z,72.40
2019-01-09T14:03:15.130Z,70.17
2019-01-09T14:06:18.522Z,67.10
2019-01-09T14:09:21.926Z,66.61
2019-01-09T14:12:25.296Z,67.58
2019-01-09T14:15:28.752Z,66.64
2019-01-09T14:18:32.142Z,64.48
2019-01-09T14:21:35.491Z,65.59
2019-01-09T14:24:38.926Z,64.07
2019-01-09T14:27:42.278Z,63.11
2019-01-09T14:30:45.827Z,62.95
2019-01-09T14:33:49.271Z,63.29
2019-01-09T14:36:52.796Z,63.04
2019-01-09T14:39:56.264Z,62.64
2019-01-09T14:42:59.665Z,60.43
2019-01-09T14:46:03.258Z,62.91
2019-01-09T14:49:06.615Z,62.19
2019-01-09T14:52:10.076Z,61.59
2019-01-09T14:55:13.477Z,61.82
2019-01-09T14:58:16.836Z,60.86
2019-01-09T15:01:20.244Z,61.52
2019-01-09T15:04:23.598Z,61.75
2019-01-09T15:07:27.115Z,62.92
2019-01-09T15:10:31.623Z,62.06
2019-01-09T15:13:34.593Z,63.05
2019-01-09T15:16:37.957Z,63.80
2019-01-09T15:19:41.455Z,63.52
2019-01-09T15:22:44.930Z,63.16
2019-01-09T15:25:49.125Z,63.75
2019-01-09T15:28:51.715Z,64.80
2019-01-09T15:31:55.067Z,66.11
2019-01-09T15:34:58.419Z,67.59
2019-01-09T15:38:01.919Z,69.29
2019-01-09T15:41:05.397Z,69.96
2019-01-09T15:44:08.811Z,70.56
2019-01-09T15:47:12.265Z,71.67
2019-01-09T15:50:17.371Z,71.76
2019-01-09T15:53:20.833Z,72.57
2019-01-09T15:56:24.231Z,72.63
2019-01-09T15:59:27.577Z,72.86
2019-01-09T16:02:31.105Z,73.57
2019-01-09T16:05:34.509Z,73.29
2019-01-09T16:08:37.997Z,73.66
2019-01-09T16:11:41.411Z,74.16
2019-01-09T16:14:44.788Z,73.12
2019-01-09T16:17:48.276Z,73.38
2019-01-09T16:20:52.981Z,72.75
2019-01-09T16:23:56.345Z,71.82
2019-01-09T16:26:59.748Z,72.14
2019-01-09T16:30:03.243Z,72.09
2019-01-09T16:33:07.007Z,72.23
2019-01-09T16:36:10.371Z,73.31
2019-01-09T16:39:13.769Z,75.37
2019-01-09T16:42:17.161Z,78.23
2019-01-09T16:45:20.560Z,79.28
2019-01-09T16:48:24.099Z,79.19
2019-01-09T16:51:28.075Z,79.21
2019-01-09T16:54:31.453Z,78.53
2019-01-09T16:57:34.904Z,78.84
2019-01-09T17:00:38.438Z,78.00
2019-01-09T17:03:41.801Z,78.02
2019-01-09T17:06:45.201Z,76.52
2019-01-09T17:09:48.852Z,77.05
2019-01-09T17:12:52.394Z,74.86
2019-01-09T17:15:56.404Z,74.86
2019-01-09T17:18:59.861Z,74.25
2019-01-09T17:22:04.412Z,72.89
2019-01-09T17:25:08.382Z,72.89
2019-01-09T17:28:12.119Z,71.38
2019-01-09T17:31:15.764Z,71.24
2019-01-09T17:34:19.275Z,71.96
2019-01-09T17:37:23.778Z,71.08
2019-01-09T17:40:28.010Z,70.12
2019-01-09T17:43:33.970Z,69.41
2019-01-09T17:46:38.537Z,68.46
2019-01-09T17:49:44.645Z,69.12
2019-01-09T17:52:48.060Z,68.70
2019-01-09T17:55:56.108Z,68.71
2019-01-09T17:59:01.214Z,67.47
2019-01-09T18:02:06.045Z,67.87
2019-01-09T18:05:10.492Z,68.21
2019-01-09T18:08:14.428Z,67.47
2019-01-09T18:11:17.866Z,67.82
2019-01-09T18:14:21.250Z,68.16
2019-01-09T18:17:24.709Z,68.30
2019-01-09T18:20:28.491Z,68.34
2019-01-09T18:23:32.035Z,68.37
2019-01-09T18:26:35.641Z,68.47
2019-01-09T18:29:39.293Z,68.13
2019-01-09T18:32:49.051Z,68.81
2019-01-09T18:36:35.938Z,68.74
2019-01-09T18:39:49.107Z,69.38
2019-01-09T18:45:04.904Z,68.99
2019-01-09T18:48:19.391Z,69.42
2019-01-09T18:51:47.840Z,68.71
2019-01-09T18:54:51.348Z,68.69
2019-01-09T18:57:54.883Z,68.79
2019-01-09T19:00:58.464Z,68.70
2019-01-09T19:04:02.140Z,68.76
2019-01-09T19:07:10.464Z,69.33
2019-01-09T19:10:17.425Z,68.59
2019-01-09T19:13:21.052Z,68.98
2019-01-09T19:16:24.755Z,69.16
2019-01-09T19:19:28.250Z,68.50
2019-01-09T19:26:10.029Z,68.20
2019-01-09T19:29:15.770Z,68.56
2019-01-09T19:32:19.345Z,68.36
2019-01-09T19:35:23.896Z,68.89
2019-01-09T19:38:27.647Z,68.91
2019-01-09T19:41:31.152Z,68.53
2019-01-09T19:44:34.735Z,68.16
2019-01-09T19:47:38.279Z,69.39
2019-01-09T19:50:42.552Z,68.63
2019-01-09T19:53:45.505Z,69.60
2019-01-09T20:00:26.523Z,70.65
2019-01-09T20:03:30.032Z,70.72
2019-01-09T20:06:33.542Z,70.38
2019-01-09T20:09:37.095Z,70.28
2019-01-09T20:12:41.893Z,71.05
2019-01-09T20:15:45.518Z,70.47
2019-01-09T20:18:50.058Z,70.43
2019-01-09T20:21:52.472Z,71.19
2019-01-09T20:24:56.095Z,70.85
2019-01-09T20:27:59.545Z,70.92
2019-01-09T20:31:03.082Z,69.68
2019-01-09T20:34:06.545Z,70.30
2019-01-09T20:37:10.113Z,70.94
2019-01-09T20:40:13.698Z,70.29
2019-01-09T20:43:21.045Z,71.13
2019-01-09T20:46:24.701Z,70.76
2019-01-09T20:49:28.961Z,70.78
2019-01-09T20:52:33.389Z,70.51
2019-01-09T20:55:36.864Z,70.90
2019-01-09T20:58:40.307Z,71.01
2019-01-09T21:01:43.758Z,71.67
2019-01-09T21:04:47.763Z,71.60
2019-01-09T21:07:51.354Z,71.80
2019-01-09T21:10:54.936Z,71.94
2019-01-09T21:13:58.382Z,71.60
2019-01-09T21:17:02.191Z,71.53
2019-01-09T21:20:08.687Z,71.65
2019-01-09T21:23:12.359Z,71.84
2019-01-09T21:26:15.860Z,72.14
2019-01-09T21:29:19.347Z,73.18
2019-01-09T21:32:23.459Z,74.12
2019-01-09T21:35:26.861Z,75.56
2019-01-09T21:38:30.548Z,76.91
2019-01-09T21:41:34.046Z,77.72
2019-01-09T21:44:38.209Z,78.90
2019-01-09T21:47:42.308Z,80.15
2019-01-09T21:50:45.913Z,81.83
2019-01-09T21:53:52.274Z,82.75
2019-01-09T21:56:56.416Z,83.52
2019-01-09T22:00:00.837Z,84.25
2019-01-09T22:03:04.563Z,84.53
2019-01-09T22:06:08.094Z,84.85
2019-01-09T22:09:11.468Z,84.68
2019-01-09T22:12:15.049Z,85.30
2019-01-09T22:15:19.588Z,85.38
2019-01-09T22:18:23.003Z,85.72
2019-01-09T22:21:26.497Z,85.97
2019-01-09T22:24:30.038Z,85.67
2019-01-09T22:27:33.454Z,85.45
2019-01-09T22:30:36.982Z,86.10
2019-01-09T22:33:40.376Z,86.75
2019-01-09T22:36:43.771Z,87.26
2019-01-09T22:39:47.231Z,87.84
2019-01-09T22:42:50.755Z,88.48
2019-01-09T22:45:54.173Z,88.29
2019-01-09T22:48:57.675Z,88.65
2019-01-09T22:52:02.174Z,88.97
2019-01-09T22:55:05.715Z,88.79
2019-01-09T22:58:09.102Z,88.55
2019-01-09T23:01:17.869Z,88.14
2019-01-09T23:04:21.268Z,87.71
2019-01-09T23:07:24.637Z,89.36
2019-01-09T23:10:28.040Z,90.30
2019-01-09T23:13:31.440Z,90.62
2019-01-09T23:16:34.861Z,91.10
2019-01-09T23:19:38.230Z,92.02
2019-01-09T23:22:41.667Z,93.43
2019-01-09T23:25:45.062Z,93.98
2019-01-09T23:28:48.441Z,94.69
2019-01-09T23:31:51.870Z,95.55
2019-01-09T23:34:55.377Z,95.82
2019-01-09T23:37:58.701Z,95.95
2019-01-09T23:41:02.107Z,96.10
2019-01-09T23:44:05.589Z,96.34
2019-01-09T23:47:08.999Z,95.89
2019-01-09T23:50:12.497Z,96.06
2019-01-09T23:53:16.007Z,96.33
2019-01-09T23:56:19.401Z,96.20
2019-01-09T23:59:22.820Z,96.85
